createdAt,value
2018-04-20T00:01:43.064Z,4.43
2018-04-20T00:04:09.609Z,4.70
2018-04-20T00:06:36.013Z,4.90
2018-04-20T00:09:02.582Z,4.33
2018-04-20T00:11:28.955Z,4.40
2018-04-20T00:13:55.344Z,3.87
2018-04-20T00:16:21.780Z,4.67
2018-04-20T00:18:48.206Z,4.33
2018-04-20T00:21:14.559Z,4.90
2018-04-20T00:23:40.936Z,4.47
2018-04-20T00:26:07.272Z,5.17
2018-04-20T00:28:33.694Z,5.33
2018-04-20T00:31:00.157Z,4.37
2018-04-20T00:33:26.480Z,3.93
2018-04-20T00:35:52.919Z,4.20
2018-04-20T00:38:19.450Z,4.63
2018-04-20T00:40:45.821Z,4.80
2018-04-20T00:43:12.142Z,4.67
2018-04-20T00:45:38.552Z,5.07
2018-04-20T00:48:04.946Z,5.00
2018-04-20T00:50:31.373Z,4.57
2018-04-20T00:52:57.816Z,4.10
2018-04-20T00:55:24.192Z,4.00
2018-04-20T00:57:50.667Z,3.50
2018-04-20T01:00:17.084Z,4.30
2018-04-20T01:02:43.486Z,4.03
2018-04-20T01:05:09.853Z,4.77
2018-04-20T01:07:36.362Z,4.17
2018-04-20T01:10:02.785Z,3.90
2018-04-20T01:12:29.139Z,3.90
2018-04-20T01:14:55.567Z,3.47
2018-04-20T01:17:21.991Z,3.93
2018-04-20T01:19:48.332Z,4.17
2018-04-20T01:22:14.773Z,3.60
2018-04-20T01:24:41.249Z,3.67
2018-04-20T01:27:07.742Z,3.63
2018-04-20T01:29:34.141Z,3.50
2018-04-20T01:32:00.564Z,3.60
2018-04-20T01:34:26.910Z,3.60
2018-04-20T01:39:36.386Z,3.10
2018-04-20T01:42:02.791Z,3.70
2018-04-20T01:44:29.217Z,3.80
2018-04-20T01:46:55.705Z,3.47
2018-04-20T01:49:22.124Z,3.17
2018-04-20T01:51:48.476Z,3.33
2018-04-20T01:54:14.886Z,3.33
2018-04-20T01:56:41.304Z,4.07
2018-04-20T01:59:07.667Z,3.00
2018-04-20T02:01:34.202Z,3.43
2018-04-20T02:04:00.631Z,3.10
2018-04-20T02:06:27.045Z,3.70
2018-04-20T02:08:53.572Z,3.10
2018-04-20T02:11:19.915Z,3.27
2018-04-20T02:13:46.260Z,4.00
2018-04-20T02:16:12.652Z,3.70
2018-04-20T02:18:39.137Z,3.27
2018-04-20T02:21:05.470Z,4.10
2018-04-20T02:23:31.837Z,3.47
2018-04-20T02:25:58.255Z,3.30
2018-04-20T02:28:24.743Z,3.33
2018-04-20T02:30:51.169Z,3.60
2018-04-20T02:33:17.605Z,3.20
2018-04-20T02:35:43.934Z,4.17
2018-04-20T02:38:10.444Z,3.50
2018-04-20T02:40:36.852Z,3.33
2018-04-20T02:43:03.290Z,3.80
2018-04-20T02:45:29.773Z,3.07
2018-04-20T02:47:56.204Z,3.50
2018-04-20T02:50:22.569Z,3.53
2018-04-20T02:52:49.005Z,3.47
2018-04-20T02:55:15.408Z,2.97
2018-04-20T02:57:42.807Z,3.10
2018-04-20T03:00:09.164Z,3.30
2018-04-20T03:02:35.496Z,3.20
2018-04-20T03:05:01.860Z,3.60
2018-04-20T03:07:28.407Z,3.40
2018-04-20T03:09:54.744Z,3.37
2018-04-20T03:12:21.132Z,3.33
2018-04-20T03:14:47.560Z,3.70
2018-04-20T03:17:14.082Z,3.60
2018-04-20T03:19:40.472Z,3.73
2018-04-20T03:22:06.933Z,2.93
2018-04-20T03:24:33.307Z,3.63
2018-04-20T03:26:59.781Z,2.93
2018-04-20T03:29:26.193Z,2.70
2018-04-20T03:31:52.559Z,3.03
2018-04-20T03:34:18.956Z,3.50
2018-04-20T03:36:45.428Z,3.00
2018-04-20T03:39:11.802Z,2.87
2018-04-20T03:41:38.219Z,2.70
2018-04-20T03:44:04.726Z,3.93
2018-04-20T03:46:31.081Z,2.67
2018-04-20T03:48:57.605Z,3.33
2018-04-20T03:51:23.992Z,2.73
2018-04-20T03:53:50.328Z,3.23
2018-04-20T03:56:16.770Z,3.00
2018-04-20T03:58:43.223Z,3.20
2018-04-20T04:01:09.626Z,2.80
2018-04-20T04:03:36.151Z,3.57
2018-04-20T04:06:02.874Z,3.30
2018-04-20T04:08:29.347Z,3.50
2018-04-20T04:10:55.721Z,3.13
2018-04-20T04:13:22.163Z,3.07
2018-04-20T04:15:48.564Z,3.70
2018-04-20T04:18:27.199Z,3.07
2018-04-20T04:21:05.949Z,3.27
2018-04-20T04:23:44.668Z,3.67
2018-04-20T04:26:23.316Z,3.73
2018-04-20T04:28:49.826Z,3.03
2018-04-20T04:31:16.177Z,3.00
2018-04-20T04:33:42.590Z,2.83
2018-04-20T04:36:09.036Z,3.43
2018-04-20T04:38:35.515Z,3.70
2018-04-20T04:41:02.152Z,3.30
2018-04-20T04:43:28.751Z,3.50
2018-04-20T04:45:55.232Z,3.23
2018-04-20T04:48:21.669Z,3.60
2018-04-20T04:50:48.187Z,3.60
2018-04-20T04:53:14.575Z,3.20
2018-04-20T04:55:40.952Z,3.57
2018-04-20T04:58:07.387Z,3.50
2018-04-20T05:00:33.897Z,3.77
2018-04-20T05:03:00.318Z,3.43
2018-04-20T05:05:26.776Z,2.73
2018-04-20T05:07:53.265Z,3.00
2018-04-20T05:10:19.741Z,2.87
2018-04-20T05:12:46.148Z,3.30
2018-04-20T05:15:12.575Z,3.23
2018-04-20T05:17:39.015Z,3.40
2018-04-20T05:20:05.703Z,3.00
2018-04-20T05:22:32.199Z,3.30
2018-04-20T05:24:59.480Z,3.00
2018-04-20T05:27:26.064Z,2.97
2018-04-20T05:29:52.546Z,3.27
2018-04-20T05:32:19.279Z,3.23
2018-04-20T05:34:45.750Z,3.00
2018-04-20T05:37:12.214Z,3.10
2018-04-20T05:39:38.593Z,3.20
2018-04-20T05:42:05.076Z,2.90
2018-04-20T05:44:31.531Z,2.80
2018-04-20T05:46:58.007Z,3.20
2018-04-20T05:49:25.912Z,3.03
2018-04-20T05:51:52.440Z,3.50
2018-04-20T05:54:18.869Z,3.10
2018-04-20T05:56:45.236Z,3.20
2018-04-20T05:59:11.804Z,12.73
2018-04-20T06:01:39.143Z,11.90
2018-04-20T06:04:05.578Z,8.53
2018-04-20T06:06:32.059Z,26.87
2018-04-20T06:08:58.634Z,27.43
2018-04-20T06:11:25.054Z,23.87
2018-04-20T06:13:51.653Z,5.73
2018-04-20T06:16:18.067Z,4.97
2018-04-20T06:18:44.585Z,4.73
2018-04-20T06:21:11.381Z,4.63
2018-04-20T06:23:37.884Z,4.40
2018-04-20T06:26:04.301Z,4.73
2018-04-20T06:28:30.928Z,4.63
2018-04-20T06:30:57.313Z,4.97
2018-04-20T06:33:23.701Z,4.37
2018-04-20T06:35:50.146Z,5.03
2018-04-20T06:38:16.664Z,4.27
2018-04-20T06:40:43.103Z,4.00
2018-04-20T06:43:09.526Z,3.83
2018-04-20T06:45:35.922Z,4.70
2018-04-20T06:48:02.463Z,4.73
2018-04-20T06:50:28.956Z,4.93
2018-04-20T06:52:55.343Z,5.13
2018-04-20T06:55:21.789Z,6.37
2018-04-20T06:57:48.329Z,5.23
2018-04-20T07:00:14.733Z,6.13
2018-04-20T07:02:41.153Z,5.20
2018-04-20T07:05:07.531Z,5.87
2018-04-20T07:07:33.988Z,5.07
2018-04-20T07:10:00.349Z,6.13
2018-04-20T07:12:26.691Z,5.47
2018-04-20T07:14:53.076Z,5.60
2018-04-20T07:17:19.496Z,5.87
2018-04-20T07:19:46.017Z,5.17
2018-04-20T07:22:12.418Z,6.20
2018-04-20T07:24:38.788Z,6.30
2018-04-20T07:27:05.257Z,5.77
2018-04-20T07:29:31.849Z,6.20
2018-04-20T07:31:58.453Z,6.00
2018-04-20T07:34:24.937Z,6.13
2018-04-20T07:36:51.335Z,5.60
2018-04-20T07:39:17.805Z,5.97
2018-04-20T07:41:44.191Z,5.07
2018-04-20T07:44:10.526Z,5.50
2018-04-20T07:46:36.923Z,5.57
2018-04-20T07:49:03.551Z,4.77
2018-04-20T07:51:30.003Z,5.03
2018-04-20T07:53:56.491Z,5.20
2018-04-20T07:56:22.983Z,5.43
2018-04-20T07:58:49.398Z,5.90
2018-04-20T08:01:15.734Z,5.70
2018-04-20T08:03:42.124Z,5.33
2018-04-20T08:06:08.467Z,4.87
2018-04-20T08:08:34.959Z,6.17
2018-04-20T08:11:01.333Z,5.00
2018-04-20T08:13:27.743Z,5.37
2018-04-20T08:15:54.159Z,5.83
2018-04-20T08:18:20.695Z,5.20
2018-04-20T08:20:47.075Z,5.30
2018-04-20T08:23:13.466Z,4.53
2018-04-20T08:25:39.928Z,4.80
2018-04-20T08:28:06.369Z,5.60
2018-04-20T08:30:32.752Z,5.30
2018-04-20T08:32:59.153Z,4.47
2018-04-20T08:35:25.526Z,4.87
2018-04-20T08:37:54.858Z,4.70
2018-04-20T08:40:21.421Z,4.90
2018-04-20T08:42:47.760Z,4.83
2018-04-20T08:45:14.196Z,4.90
2018-04-20T08:47:40.673Z,4.60
2018-04-20T08:50:07.051Z,4.97
2018-04-20T08:52:33.595Z,4.43
2018-04-20T08:55:00.121Z,4.60
2018-04-20T08:57:26.697Z,4.03
2018-04-20T08:59:53.161Z,4.03
2018-04-20T09:02:19.744Z,4.50
2018-04-20T09:04:46.157Z,4.80
2018-04-20T09:07:12.874Z,4.23
2018-04-20T09:09:39.451Z,4.83
2018-04-20T09:12:06.200Z,4.20
2018-04-20T09:14:33.184Z,4.80
2018-04-20T09:16:59.904Z,4.20
2018-04-20T09:19:26.683Z,4.37
2018-04-20T09:21:53.378Z,4.90
2018-04-20T09:24:19.821Z,4.23
2018-04-20T09:26:46.382Z,4.53
2018-04-20T09:29:13.016Z,4.03
2018-04-20T09:31:39.583Z,4.07
2018-04-20T09:34:06.186Z,4.77
2018-04-20T09:36:32.684Z,3.90
2018-04-20T09:38:59.246Z,3.87
2018-04-20T09:41:25.751Z,4.03
2018-04-20T09:43:52.511Z,4.50
2018-04-20T09:46:19.182Z,4.00
2018-04-20T09:48:45.769Z,4.47
2018-04-20T09:51:12.745Z,4.00
2018-04-20T09:53:39.563Z,4.97
2018-04-20T09:56:06.253Z,4.17
2018-04-20T09:58:33.189Z,4.23
2018-04-20T10:01:05.979Z,4.83
2018-04-20T10:03:32.727Z,4.70
2018-04-20T10:05:59.564Z,4.23
2018-04-20T10:08:26.379Z,4.43
2018-04-20T10:10:52.955Z,4.63
2018-04-20T10:13:19.620Z,14.23
2018-04-20T10:15:46.612Z,4.37
2018-04-20T10:18:13.396Z,4.10
2018-04-20T10:20:40.371Z,4.03
2018-04-20T10:23:07.157Z,3.43
2018-04-20T10:25:33.798Z,3.43
2018-04-20T10:28:00.462Z,3.33
2018-04-20T10:30:27.059Z,3.03
2018-04-20T10:32:53.687Z,3.10
2018-04-20T10:35:20.232Z,2.23
2018-04-20T10:37:47.390Z,2.63
2018-04-20T10:40:14.008Z,1.90
2018-04-20T10:42:40.857Z,2.17
2018-04-20T10:45:07.415Z,2.40
2018-04-20T10:47:33.991Z,2.77
2018-04-20T10:50:00.564Z,3.07
2018-04-20T10:52:27.326Z,2.10
2018-04-20T10:54:53.738Z,2.70
2018-04-20T10:57:20.214Z,2.60
2018-04-20T10:59:46.827Z,2.90
2018-04-20T11:02:13.216Z,2.67
2018-04-20T11:04:39.714Z,2.03
2018-04-20T11:07:06.198Z,2.40
2018-04-20T11:09:32.773Z,2.30
2018-04-20T11:11:59.319Z,2.23
2018-04-20T11:14:25.738Z,6.43
2018-04-20T11:16:52.392Z,2.00
2018-04-20T11:19:19.021Z,2.43
2018-04-20T11:21:45.585Z,2.77
2018-04-20T11:24:12.077Z,2.60
2018-04-20T11:26:38.717Z,2.57
2018-04-20T11:29:05.264Z,2.23
2018-04-20T11:31:31.999Z,5.10
2018-04-20T11:33:58.706Z,5.73
2018-04-20T11:36:25.240Z,2.27
2018-04-20T11:38:51.674Z,2.30
2018-04-20T11:41:18.280Z,2.83
2018-04-20T11:43:44.751Z,2.50
2018-04-20T11:46:11.307Z,2.53
2018-04-20T11:48:37.823Z,2.40
2018-04-20T11:51:04.388Z,2.30
2018-04-20T11:53:30.897Z,2.60
2018-04-20T11:55:57.411Z,2.23
2018-04-20T11:58:24.055Z,2.00
2018-04-20T12:00:50.612Z,2.37
2018-04-20T12:03:17.265Z,2.43
2018-04-20T12:05:43.662Z,2.20
2018-04-20T12:08:10.364Z,2.10
2018-04-20T12:10:36.867Z,2.37
2018-04-20T12:13:03.549Z,2.73
2018-04-20T12:15:30.011Z,2.80
2018-04-20T12:17:56.498Z,2.50
2018-04-20T12:20:22.940Z,2.13
2018-04-20T12:22:49.543Z,2.30
2018-04-20T12:25:16.126Z,3.10
2018-04-20T12:27:42.545Z,3.10
2018-04-20T12:30:09.140Z,3.10
2018-04-20T12:32:35.574Z,3.40
2018-04-20T12:35:01.990Z,3.57
2018-04-20T12:37:28.498Z,3.03
2018-04-20T12:39:54.947Z,3.10
2018-04-20T12:42:21.369Z,3.40
2018-04-20T12:44:47.830Z,3.17
2018-04-20T12:47:14.217Z,2.97
2018-04-20T12:49:40.651Z,2.50
2018-04-20T12:52:07.192Z,3.17
2018-04-20T12:54:33.585Z,3.37
2018-04-20T12:57:00.129Z,3.47
2018-04-20T12:59:26.552Z,2.60
2018-04-20T13:01:52.957Z,2.43
2018-04-20T13:04:19.410Z,2.60
2018-04-20T13:06:45.830Z,2.80
2018-04-20T13:09:12.362Z,3.37
2018-04-20T13:11:38.833Z,3.10
2018-04-20T13:14:05.473Z,2.83
2018-04-20T13:16:31.957Z,3.13
2018-04-20T13:18:58.551Z,2.83
2018-04-20T13:21:25.028Z,3.03
2018-04-20T13:23:51.430Z,2.70
2018-04-20T13:26:17.990Z,2.50
2018-04-20T13:28:44.415Z,2.60
2018-04-20T13:31:10.967Z,3.80
2018-04-20T13:33:37.684Z,3.50
2018-04-20T13:36:04.187Z,3.50
2018-04-20T13:38:30.722Z,3.23
2018-04-20T13:40:57.537Z,4.20
2018-04-20T13:43:24.057Z,3.73
2018-04-20T13:45:50.717Z,3.27
2018-04-20T13:48:18.459Z,3.33
2018-04-20T13:50:44.946Z,3.73
2018-04-20T13:53:11.346Z,3.13
2018-04-20T13:55:37.941Z,3.47
2018-04-20T13:58:04.383Z,3.20
2018-04-20T14:00:30.925Z,3.00
2018-04-20T14:02:57.506Z,3.47
2018-04-20T14:05:24.014Z,3.40
2018-04-20T14:07:50.353Z,3.37
2018-04-20T14:10:16.846Z,3.30
2018-04-20T14:12:43.358Z,3.03
2018-04-20T14:15:09.807Z,3.30
2018-04-20T14:17:36.379Z,3.40
2018-04-20T14:20:02.918Z,3.73
2018-04-20T14:22:29.455Z,3.30
2018-04-20T14:24:56.024Z,3.30
2018-04-20T14:27:22.550Z,3.27
2018-04-20T14:29:49.058Z,2.80
2018-04-20T14:32:15.705Z,2.27
2018-04-20T14:34:42.344Z,1.83
2018-04-20T14:37:08.895Z,1.87
2018-04-20T14:39:35.612Z,2.33
2018-04-20T14:42:02.285Z,2.30
2018-04-20T14:44:28.634Z,2.60
2018-04-20T14:46:55.281Z,2.33
2018-04-20T14:49:21.813Z,2.47
2018-04-20T14:51:48.203Z,2.40
2018-04-20T14:54:14.813Z,2.17
2018-04-20T14:56:41.235Z,2.27
2018-04-20T14:59:07.725Z,2.70
2018-04-20T15:01:34.465Z,2.80
2018-04-20T15:04:00.932Z,2.63
2018-04-20T15:06:27.414Z,2.90
2018-04-20T15:08:53.926Z,2.70
2018-04-20T15:11:20.330Z,3.10
2018-04-20T15:13:46.890Z,2.93
2018-04-20T15:16:13.533Z,2.97
2018-04-20T15:18:40.142Z,2.80
2018-04-20T15:21:06.663Z,2.83
2018-04-20T15:23:33.499Z,2.67
2018-04-20T15:26:00.000Z,2.50
2018-04-20T15:28:26.519Z,2.80
2018-04-20T15:30:53.031Z,2.63
2018-04-20T15:33:19.588Z,2.37
2018-04-20T15:35:46.283Z,2.00
2018-04-20T15:38:12.761Z,3.03
2018-04-20T15:40:39.299Z,1.97
2018-04-20T15:43:05.908Z,1.87
2018-04-20T15:45:32.455Z,2.23
2018-04-20T15:47:59.069Z,2.17
2018-04-20T15:50:25.540Z,2.03
2018-04-20T15:52:52.249Z,2.10
2018-04-20T15:55:18.779Z,1.97
2018-04-20T15:57:45.448Z,2.77
2018-04-20T16:00:12.078Z,1.63
2018-04-20T16:02:38.569Z,2.00
2018-04-20T16:05:05.196Z,2.73
2018-04-20T16:07:32.264Z,1.90
2018-04-20T16:09:58.791Z,1.87
2018-04-20T16:12:26.146Z,2.03
2018-04-20T16:14:52.621Z,2.47
2018-04-20T16:17:19.068Z,1.70
2018-04-20T16:19:45.515Z,1.73
2018-04-20T16:22:12.087Z,1.50
2018-04-20T16:24:38.579Z,1.70
2018-04-20T16:27:05.052Z,1.87
2018-04-20T16:29:31.773Z,1.47
2018-04-20T16:31:58.509Z,1.73
2018-04-20T16:34:25.082Z,1.40
2018-04-20T16:36:51.721Z,1.73
2018-04-20T16:39:18.276Z,1.20
2018-04-20T16:41:44.734Z,1.50
2018-04-20T16:44:11.211Z,2.17
2018-04-20T16:46:37.653Z,1.70
2018-04-20T16:49:04.135Z,1.50
2018-04-20T16:51:30.649Z,1.77
2018-04-20T16:53:57.086Z,1.57
2018-04-20T16:56:23.575Z,1.60
2018-04-20T16:58:50.090Z,1.47
2018-04-20T17:01:16.494Z,2.07
2018-04-20T17:03:43.090Z,1.40
2018-04-20T17:06:09.576Z,1.60
2018-04-20T17:08:36.018Z,1.87
2018-04-20T17:11:02.578Z,1.80
2018-04-20T17:13:29.915Z,2.00
2018-04-20T17:15:56.360Z,1.77
2018-04-20T17:18:22.920Z,1.83
2018-04-20T17:20:49.594Z,1.80
2018-04-20T17:23:16.030Z,1.80
2018-04-20T17:25:43.824Z,1.43
2018-04-20T17:28:10.372Z,1.77
2018-04-20T17:30:36.992Z,1.60
2018-04-20T17:33:03.538Z,1.50
2018-04-20T17:35:30.116Z,1.50
2018-04-20T17:37:56.568Z,1.80
2018-04-20T17:40:23.241Z,1.70
2018-04-20T17:42:49.642Z,1.80
2018-04-20T17:45:16.841Z,1.70
2018-04-20T17:47:45.374Z,1.70
2018-04-20T17:50:13.424Z,1.80
2018-04-20T17:52:40.332Z,1.67
2018-04-20T17:55:08.765Z,1.90
2018-04-20T17:57:35.568Z,1.87
2018-04-20T18:00:03.788Z,2.10
2018-04-20T18:02:31.497Z,1.90
2018-04-20T18:04:58.073Z,1.53
2018-04-20T18:07:25.254Z,1.60
2018-04-20T18:09:51.999Z,1.63
2018-04-20T18:12:18.887Z,1.50
2018-04-20T18:14:45.364Z,1.50
2018-04-20T18:17:12.432Z,1.43
2018-04-20T18:19:39.746Z,1.67
2018-04-20T18:22:06.322Z,1.70
2018-04-20T18:24:32.849Z,1.60
2018-04-20T18:26:59.568Z,1.50
2018-04-20T18:29:26.365Z,1.90
2018-04-20T18:31:52.996Z,1.87
2018-04-20T18:34:19.594Z,1.57
2018-04-20T18:36:46.329Z,1.93
2018-04-20T18:39:13.593Z,1.80
2018-04-20T18:41:40.062Z,1.50
2018-04-20T18:44:06.643Z,1.90
2018-04-20T18:46:33.208Z,1.57
2018-04-20T18:48:59.785Z,1.60
2018-04-20T18:51:26.386Z,2.07
2018-04-20T18:53:52.962Z,1.93
2018-04-20T18:56:19.516Z,2.13
2018-04-20T18:58:46.149Z,1.80
2018-04-20T19:01:12.773Z,1.80
2018-04-20T19:03:40.131Z,1.70
2018-04-20T19:06:06.694Z,1.70
2018-04-20T19:08:33.246Z,1.80
2018-04-20T19:10:59.861Z,1.63
2018-04-20T19:13:26.339Z,1.97
2018-04-20T19:15:54.405Z,3.00
2018-04-20T19:18:21.640Z,1.47
2018-04-20T19:20:48.478Z,1.83
2018-04-20T19:23:15.043Z,1.67
2018-04-20T19:25:41.492Z,1.97
2018-04-20T19:28:08.192Z,1.83
2018-04-20T19:30:34.991Z,2.07
2018-04-20T19:33:02.387Z,1.67
2018-04-20T19:35:28.900Z,1.70
2018-04-20T19:37:55.747Z,1.83
2018-04-20T19:40:22.435Z,1.80
2018-04-20T19:42:48.938Z,1.60
2018-04-20T19:45:15.490Z,1.80
2018-04-20T19:47:42.500Z,1.50
2018-04-20T19:50:09.126Z,1.63
2018-04-20T19:52:35.643Z,1.80
2018-04-20T19:55:03.325Z,2.00
2018-04-20T19:57:29.762Z,1.70
2018-04-20T19:59:56.481Z,2.30
2018-04-20T20:02:23.266Z,2.83
2018-04-20T20:04:49.778Z,2.77
2018-04-20T20:07:16.287Z,2.00
2018-04-20T20:09:43.255Z,1.87
2018-04-20T20:12:09.696Z,2.30
2018-04-20T20:14:36.197Z,2.40
2018-04-20T20:17:02.599Z,2.27
2018-04-20T20:19:29.080Z,2.20
2018-04-20T20:21:55.533Z,2.43
2018-04-20T20:24:21.970Z,2.10
2018-04-20T20:26:48.435Z,2.10
2018-04-20T20:29:14.962Z,2.10
2018-04-20T20:31:41.410Z,2.90
2018-04-20T20:34:07.886Z,2.13
2018-04-20T20:36:34.502Z,2.40
2018-04-20T20:39:01.762Z,2.33
2018-04-20T20:41:28.158Z,2.27
2018-04-20T20:43:54.638Z,2.30
2018-04-20T20:46:21.108Z,2.60
2018-04-20T20:48:47.649Z,1.90
2018-04-20T20:51:14.185Z,2.17
2018-04-20T20:53:40.620Z,2.57
2018-04-20T20:56:07.031Z,2.33
2018-04-20T20:58:33.508Z,2.10
2018-04-20T21:01:00.124Z,1.87
2018-04-20T21:03:26.535Z,2.10
2018-04-20T21:05:53.002Z,2.33
2018-04-20T21:08:19.392Z,2.20
2018-04-20T21:10:45.903Z,2.10
2018-04-20T21:13:12.313Z,2.00
2018-04-20T21:15:38.717Z,2.30
2018-04-20T21:18:05.061Z,2.50
2018-04-20T21:20:33.274Z,1.97
2018-04-20T21:23:00.916Z,2.27
2018-04-20T21:25:28.486Z,2.00
2018-04-20T21:27:55.401Z,1.93
2018-04-20T21:30:21.901Z,2.00
2018-04-20T21:32:48.724Z,2.00
2018-04-20T21:35:15.204Z,2.27
2018-04-20T21:37:41.554Z,2.20
2018-04-20T21:40:08.183Z,2.17
2018-04-20T21:42:35.293Z,2.20
2018-04-20T21:45:01.639Z,2.23
2018-04-20T21:47:28.278Z,2.70
2018-04-20T21:49:55.196Z,2.07
2018-04-20T21:52:21.935Z,2.50
2018-04-20T21:54:48.527Z,1.87
2018-04-20T21:57:14.935Z,2.20
2018-04-20T21:59:41.545Z,2.30
2018-04-20T22:02:09.126Z,1.90
2018-04-20T22:04:35.659Z,2.40
2018-04-20T22:07:02.662Z,2.70
2018-04-20T22:09:29.233Z,2.17
2018-04-20T22:11:55.889Z,2.40
2018-04-20T22:14:22.333Z,2.20
2018-04-20T22:16:49.768Z,2.30
2018-04-20T22:19:16.369Z,2.47
2018-04-20T22:21:42.798Z,2.53
2018-04-20T22:24:09.257Z,2.47
2018-04-20T22:26:35.852Z,2.50
2018-04-20T22:29:02.424Z,2.07
2018-04-20T22:31:29.181Z,2.20
2018-04-20T22:33:55.709Z,2.30
2018-04-20T22:44:12.570Z,2.67
2018-04-20T22:46:39.060Z,2.37
2018-04-20T22:49:05.642Z,2.37
2018-04-20T22:51:32.181Z,2.73
2018-04-20T22:54:00.151Z,2.60
2018-04-20T22:56:29.815Z,2.70
2018-04-20T22:58:57.683Z,2.70
2018-04-20T23:01:24.488Z,2.83
2018-04-20T23:03:50.881Z,2.23
2018-04-20T23:06:17.408Z,2.23
2018-04-20T23:08:43.786Z,2.63
2018-04-20T23:11:10.240Z,2.80
2018-04-20T23:13:36.645Z,2.63
2018-04-20T23:16:03.057Z,2.20
2018-04-20T23:18:29.480Z,2.30
2018-04-20T23:20:55.904Z,2.70
2018-04-20T23:23:22.263Z,2.70
2018-04-20T23:25:48.741Z,2.50
2018-04-20T23:28:15.099Z,2.73
2018-04-20T23:30:41.549Z,2.30
2018-04-20T23:33:08.009Z,2.77
2018-04-20T23:35:34.381Z,2.47
2018-04-20T23:38:00.802Z,3.00
2018-04-20T23:40:27.296Z,3.00
2018-04-20T23:42:53.633Z,2.70
2018-04-20T23:45:20.034Z,2.37
2018-04-20T23:47:46.601Z,2.43
2018-04-20T23:50:13.062Z,2.40
2018-04-20T23:52:39.474Z,2.70
2018-04-20T23:55:05.925Z,2.30
2018-04-20T23:57:32.459Z,2.70
2018-04-20T23:59:58.937Z,2.73
